Weather reports worldwide

Advertisment
Feldberg/Schwarzwald, Germany (10908): temperature & dewpoint: 13.12.2018 05:00:00 - 19.12.2018 05:00:00 (CET)Feldberg/Schwarzwald, Germany (10908): temperature 5cm & temperature -5cm: 13.12.2018 05:00:00 - 19.12.2018 05:00:00 (CET)Feldberg/Schwarzwald, Germany (10908): temperature -20cm & temperature -100cm: 13.12.2018 05:00:00 - 19.12.2018 05:00:00 (CET)Feldberg/Schwarzwald, Germany (10908): wind speed & gusts: 13.12.2018 05:00:00 - 19.12.2018 05:00:00 (CET)Feldberg/Schwarzwald, Germany (10908): wind direction: 13.12.2018 05:00:00 - 19.12.2018 05:00:00 (CET)Feldberg/Schwarzwald, Germany (10908): visibility: 13.12.2018 05:00:00 - 19.12.2018 05:00:00 (CET)Feldberg/Schwarzwald, Germany (10908): sunshine duration: 13.12.2018 05:00:00 - 19.12.2018 05:00:00 (CET)Feldberg/Schwarzwald, Germany (10908): precipitation: 13.12.2018 05:00:00 - 19.12.2018 05:00:00 (CET)
Date & Time tt [°C] td [°C] tt 5cm [°C] tt -5cm [°C] tt -20cm [°C] tt -100cm [°C] ff [km/h] ff [kn] fx [km/h] fx [kn] dd vv [km] sd [min] rr [mm]
19.12.2018 05:00:00 1,4 -2,9 -0,6 0,2 0,9 3,7 56 30 88 47 SW 57 0 0,0
19.12.2018 04:00:00 2,0 -6,0 -0,7 0,2 0,9 3,7 62 34 83 45 SW 70 0 0,0
19.12.2018 03:00:00 2,5 -7,8 -0,8 0,2 0,9 3,7 63 34 82 45 SW 26 0 0,0
19.12.2018 02:00:00 2,2 -8,9 -0,8 0,2 0,9 3,7 60 33 74 40 SW 52 0 0,0
19.12.2018 01:00:00 2,1 -10,1 -0,8 0,2 0,9 3,7 56 30 65 35 SSW 72 0 0,0
19.12.2018 00:00:00 0,2 -13,6 -0,9 0,2 0,9 3,7 44 24 51 28 S 69 0 0,0
18.12.2018 23:00:00 2,5 -17,2 -0,9 0,2 0,9 3,7 42 23 50 27 S 72 0 0,0
18.12.2018 22:00:00 3,3 -17,7 -0,9 0,2 0,9 3,7 46 25 54 29 SSW 75 0 0,0
18.12.2018 21:00:00 2,7 -17,0 -0,9 0,2 0,9 3,7 40 22 46 25 SSW 75 0 0,0
18.12.2018 20:00:00 2,9 -16,1 -0,8 0,2 0,9 3,7 35 19 38 20 SSW 75 0 0,0
18.12.2018 19:00:00 2,3 -18,1 -0,8 0,2 0,9 3,7 28 15 32 17 SSW 74 0 0,0
18.12.2018 18:00:00 2,0 -16,5 -0,8 0,2 0,9 3,7 28 15 38 21 SSW 64 0 0,0
18.12.2018 17:00:00 0,0 -14,7 -0,8 0,2 0,9 3,7 31 17 40 22 S 75 1 0,0
18.12.2018 16:00:00 -0,9 -12,6 -0,8 0,2 0,9 3,7 32 17 39 21 S 75 60 0,0
18.12.2018 15:00:00 -0,4 -11,8 -0,9 0,2 0,9 3,7 29 16 40 22 S 57 58 0,0
18.12.2018 14:00:00 -0,8 -10,4 -0,9 0,2 0,9 3,7 29 16 46 25 S 75 54 0,0
18.12.2018 13:00:00 -1,1 -10,4 -0,9 0,2 0,9 3,7 40 21 48 26 SSE 70 60 0,0
18.12.2018 12:00:00 -1,2 -9,6 -0,9 0,2 0,9 3,7 35 19 42 23 SSE 41 60 0,0
18.12.2018 11:00:00 -1,6 -8,5 -0,9 0,2 0,9 3,7 29 15 34 18 SSE 64 60 0,0
18.12.2018 10:00:00 -2,6 -7,2 -0,8 0,2 0,9 3,8 23 13 29 16 SSE 75 60 0,0
18.12.2018 09:00:00 -3,1 -6,7 -0,7 0,2 0,9 3,8 13 7 19 10 S 72 17 0,0
18.12.2018 08:00:00 -4,4 -5,8 -0,6 0,2 0,9 3,8 3 2 6 3 SSE 75 0 0,0
18.12.2018 07:00:00 -4,1 -5,5 -0,5 0,2 0,9 3,8 3 1 12 7 SSE 75 0 0,0
18.12.2018 06:00:00 -3,9 -4,8 -0,4 0,2 0,9 3,8 13 7 19 10 S 75 0 0,0
18.12.2018 05:00:00 -3,9 -4,9 -0,4 0,2 0,9 3,8 16 9 22 12 S 75 0 0,0
18.12.2018 04:00:00 -3,7 -4,6 -0,3 0,2 0,9 3,8 19 10 26 14 S 65 0 0,0
18.12.2018 03:00:00 -3,7 -4,6 -0,3 0,2 0,9 3,8 24 13 30 16 S 54 0 0,0
18.12.2018 02:00:00 -3,3 -4,1 -0,3 0,2 0,9 3,8 23 12 34 18 S 0,1 0 0,0
18.12.2018 01:00:00 -3,0 -3,6 -0,3 0,2 0,9 3,8 20 11 37 20 SW 0,1 0 0,0
18.12.2018 00:00:00 -2,7 -3,3 -0,3 0,2 0,9 3,8 29 16 40 22 SW 0,1 0 0,0
17.12.2018 23:00:00 -2,6 -3,3 -0,3 0,2 0,9 3,8 33 18 40 21 SW 0,1 0 0,0
17.12.2018 22:00:00 -2,4 -3,0 -0,3 0,2 0,9 3,8 30 16 39 21 SW 0,1 0 0,2
17.12.2018 21:00:00 -2,5 -3,1 -0,3 0,2 0,9 3,8 32 18 42 23 SW 0,1 0 0,5
17.12.2018 20:00:00 -2,4 -3,0 -0,3 0,2 0,9 3,8 27 14 46 25 SW 0,1 0 0,1
17.12.2018 19:00:00 -2,7 -3,3 -0,2 0,2 0,9 3,8 31 17 50 27 WSW 0,1 0 0,0
17.12.2018 18:00:00 -3,0 -3,7 -0,2 0,2 0,9 3,8 38 21 49 26 SW 0,1 0 0,0
17.12.2018 17:00:00 -2,8 -3,5 -0,2 0,2 0,9 3,8 29 15 44 24 W - 0 0,0
17.12.2018 16:00:00 -2,7 -3,3 -0,3 0,2 0,9 3,8 31 17 39 21 SW 0,1 0 0,0
17.12.2018 15:00:00 -2,3 -2,8 -0,3 0,2 0,9 3,8 34 18 44 24 W - 0 0,0
17.12.2018 14:00:00 -2,2 -2,8 -0,3 0,2 0,9 3,8 31 17 39 21 SW 0,1 0 0,1
17.12.2018 13:00:00 -2,2 -2,7 -0,3 0,2 0,9 3,8 29 16 45 25 SW 0,1 0 0,1
17.12.2018 12:00:00 -2,1 -2,7 -0,5 0,2 0,9 3,8 38 21 46 25 SW 0,1 0 0,0
17.12.2018 11:00:00 -2,1 -2,6 -0,5 0,2 0,9 3,8 28 15 39 21 SW 0,1 0 0,0
17.12.2018 10:00:00 -2,3 -2,8 -0,6 0,2 0,9 3,8 27 14 41 22 WSW 0,1 0 0,0
17.12.2018 09:00:00 -2,5 -3,1 -0,6 0,2 0,9 3,8 27 14 35 19 SW 0,1 0 0,0
17.12.2018 08:00:00 -2,7 -3,3 -0,7 0,2 0,9 3,8 23 13 34 18 SW 0,1 0 0,0
17.12.2018 07:00:00 -2,9 -3,6 -0,7 0,2 0,9 3,8 22 12 38 20 SW 32 0 0,0
17.12.2018 06:00:00 -2,5 -3,1 -0,7 0,2 0,9 3,8 27 14 34 18 WSW 0,1 0 0,0
17.12.2018 05:00:00 -2,6 -3,2 -0,7 0,2 0,9 3,8 26 14 33 18 SW 1,1 0 0,0
17.12.2018 04:00:00 -2,8 -3,5 -0,7 0,2 0,9 3,8 25 13 30 16 SSW 0,7 0 0,0
17.12.2018 03:00:00 -2,8 -3,5 -0,7 0,2 0,9 3,8 21 11 27 15 SSW 32 0 0,0
17.12.2018 02:00:00 -2,5 -3,1 -0,7 0,2 0,9 3,8 16 9 23 12 SSW 0,4 0 0,0
17.12.2018 01:00:00 -2,6 -3,3 -0,6 0,2 0,9 3,8 11 6 14 8 S 0,1 0 0,0
17.12.2018 00:00:00 -2,5 -3,2 -0,5 0,2 0,9 3,8 8 5 18 10 S 39 0 0,0
16.12.2018 23:00:00 -2,5 -3,3 -0,5 0,2 0,9 3,8 16 9 19 10 S 39 0 0,0
16.12.2018 22:00:00 -2,4 -3,2 -0,5 0,2 0,9 3,8 13 7 23 12 S 29 0 0,0
16.12.2018 21:00:00 -2,4 -3,1 -0,4 0,2 0,9 3,8 18 10 21 11 SSW 0,8 0 0,0
16.12.2018 20:00:00 -2,5 -3,1 -0,3 0,2 0,9 3,8 14 7 24 13 SW 0,2 0 0,0
16.12.2018 19:00:00 -2,6 -3,3 -0,2 0,2 0,9 3,8 17 9 31 17 W 49 0 0,0
16.12.2018 18:00:00 -2,5 -3,3 -0,2 0,2 0,9 3,8 26 14 38 20 WSW 47 0 0,0
16.12.2018 17:00:00 -2,5 -3,2 -0,2 0,2 0,9 3,8 28 15 35 19 SW 0,2 0 0,0
16.12.2018 16:00:00 -2,1 -2,6 -0,2 0,2 0,9 3,8 23 12 45 24 SW 0,1 5 0,0
16.12.2018 15:00:00 -1,9 -2,3 -0,2 0,2 0,9 3,8 31 17 49 26 WSW 0,2 0 0,0
16.12.2018 14:00:00 -1,9 -2,3 -0,3 0,1 0,9 3,8 41 22 58 31 W 0,1 0 0,0
16.12.2018 13:00:00 -1,7 -2,1 -0,3 0,1 0,9 3,8 46 25 61 33 WSW 0,1 0 0,0
16.12.2018 12:00:00 -1,9 -2,3 -0,4 0,1 0,9 3,8 51 28 69 37 WSW 0,1 0 0,0
16.12.2018 11:00:00 -2,0 -2,4 -0,5 0,1 0,9 3,8 50 27 74 40 WSW 0,1 0 0,0
16.12.2018 10:00:00 -2,1 -2,5 -0,5 0,1 0,9 3,8 60 33 83 45 SW 0,1 0 0,2
16.12.2018 09:00:00 -2,1 -2,5 -0,6 0,1 0,9 3,8 59 32 72 39 SW 0,1 0 0,2
16.12.2018 08:00:00 -2,8 -3,3 -0,8 0,1 0,9 3,8 50 27 64 35 SSW - 0 0,0
16.12.2018 07:00:00 -2,4 -2,8 -0,8 0,1 0,9 3,8 48 26 81 44 SW - 0 0,6
16.12.2018 06:00:00 -1,7 -2,0 -1,0 0,1 0,9 3,8 63 34 86 47 WSW 0,1 0 0,5
16.12.2018 05:00:00 -1,1 -1,3 -1,3 0,1 0,9 3,8 71 38 89 48 SW 0,1 0 1,2
16.12.2018 04:00:00 -2,1 -2,4 -1,4 0,1 0,9 3,8 56 30 68 37 SSW 0,2 0 0,6
16.12.2018 03:00:00 -3,3 -3,8 -1,5 0,1 0,9 3,8 52 28 67 36 S 0,1 0 0,6
16.12.2018 02:00:00 -4,9 -5,5 -1,6 0,1 0,9 3,8 44 24 64 34 S 0,1 0 0,1
16.12.2018 01:00:00 -6,6 -8,7 -1,7 0,1 0,9 3,8 47 25 61 33 S 3,2 0 0,0
16.12.2018 00:00:00 -5,5 -15,4 -1,7 0,1 0,9 3,8 45 24 53 28 SSW 44 0 0,0
15.12.2018 23:00:00 -5,8 -15,6 -1,6 0,1 0,9 3,8 41 22 47 26 SSW 50 0 0,0
15.12.2018 22:00:00 -6,0 -17,8 -1,6 0,1 0,9 3,8 35 19 40 22 SSW 64 0 0,0
15.12.2018 21:00:00 -6,8 -15,1 -1,6 0,1 0,9 3,8 32 18 42 23 S 67 0 0,0
15.12.2018 20:00:00 -7,3 -11,6 -1,6 0,1 0,9 3,8 36 19 43 23 SSE 55 0 0,0
15.12.2018 19:00:00 -7,4 -10,7 -1,6 0,1 0,9 3,8 36 20 44 24 SSE 75 0 0,0
15.12.2018 18:00:00 -7,6 -10,5 -1,6 0,2 0,9 3,8 34 18 36 20 SSE 58 0 0,0
15.12.2018 17:00:00 -7,4 -10,4 -1,7 0,2 0,9 3,8 27 15 34 19 SE 75 8 0,0
15.12.2018 16:00:00 -6,8 -8,8 -1,9 0,2 0,9 3,8 26 14 28 15 SSE 59 60 0,0
15.12.2018 15:00:00 -6,1 -7,6 -2,0 0,2 0,9 3,9 19 10 23 12 SSE 67 60 0,0
15.12.2018 14:00:00 -5,9 -7,5 -2,1 0,2 0,9 3,9 17 9 25 14 SSE 62 60 0,0
15.12.2018 13:00:00 -6,1 -7,5 -2,3 0,2 0,9 3,9 25 13 26 14 SE 60 60 0,0
15.12.2018 12:00:00 -5,4 -6,7 -2,3 0,2 0,9 3,9 16 9 20 11 SE 74 60 0,0
15.12.2018 11:00:00 -5,0 -5,3 -2,3 0,2 0,9 3,9 9 5 10 5 SE 58 60 0,0
15.12.2018 10:00:00 -6,7 -7,3 -2,2 0,2 0,9 3,9 3 2 10 5 ESE 75 35 0,0
15.12.2018 09:00:00 -8,2 -9,2 -2,2 0,2 0,9 3,9 9 5 9 5 ESE 75 0 0,0
15.12.2018 08:00:00 -8,3 -9,4 -2,2 0,2 0,9 3,9 3 2 6 4 ESE 75 0 0,0
15.12.2018 07:00:00 -8,2 -9,5 -2,1 0,2 0,9 3,9 6 3 12 6 SSW 62 0 0,0
15.12.2018 06:00:00 -8,3 -9,7 -2,1 0,2 0,9 3,9 11 6 15 8 SSW 64 0 0,0
15.12.2018 05:00:00 -9,1 -10,4 -2,0 0,2 0,9 3,9 10 6 14 8 SW 44 0 0,0
15.12.2018 04:00:00 -9,6 -10,8 -1,9 0,2 0,9 3,9 11 6 16 8 W 0,1 0 0,0
15.12.2018 03:00:00 -8,5 -9,7 -1,8 0,2 1,0 3,9 9 5 10 5 SW 57 0 0,0
15.12.2018 02:00:00 -8,9 -10,0 -1,7 0,2 1,0 3,9 0 0 8 4 N 62 0 0,0
15.12.2018 01:00:00 -8,8 -9,9 -1,6 0,2 1,0 3,9 6 3 8 4 NW 75 0 0,0
15.12.2018 00:00:00 -9,0 -10,1 -1,6 0,2 1,0 3,9 5 3 10 6 NNW 64 0 0,0
14.12.2018 23:00:00 -9,2 -10,3 -1,6 0,2 1,0 3,9 5 3 16 8 N 16 0 0,0
14.12.2018 22:00:00 -9,2 -10,4 -1,6 0,2 1,0 3,9 10 5 15 8 SSW - 0 0,0
14.12.2018 21:00:00 -9,3 -10,4 -1,5 0,2 1,0 3,9 6 3 16 9 S 0,1 0 0,0
14.12.2018 20:00:00 -9,1 -10,1 -1,5 0,2 1,0 3,9 4 2 16 9 SSW 0,1 0 0,0
14.12.2018 19:00:00 -9,0 -10,2 -1,4 0,2 1,0 3,9 14 8 18 10 SSW 0,1 0 0,0
14.12.2018 18:00:00 -8,3 -9,5 -1,3 0,2 1,0 3,9 11 6 14 7 SSW - 0 0,0
14.12.2018 17:00:00 -6,7 -7,5 -1,3 0,2 1,0 3,9 3 1 13 7 S 0,1 0 0,0
14.12.2018 16:00:00 -5,1 -5,6 -1,4 0,2 1,0 3,9 4 2 16 8 SE 0,1 34 0,0
14.12.2018 15:00:00 -4,9 -6,1 -1,4 0,2 1,0 3,9 12 6 14 8 S 8 55 0,0
14.12.2018 14:00:00 -5,1 -6,1 -1,5 0,2 1,0 3,9 13 7 18 10 SSW 4,3 60 0,0
14.12.2018 13:00:00 -5,8 -7,2 -1,5 0,2 1,0 3,9 13 7 16 9 S 28 60 0,0
14.12.2018 12:00:00 -6,2 -7,3 -1,5 0,2 1,0 3,9 12 6 14 8 S 27 29 0,0
14.12.2018 11:00:00 -6,6 -7,8 -1,5 0,2 1,0 3,9 10 5 17 9 S 45 3 0,0
14.12.2018 10:00:00 -6,7 -7,6 -1,5 0,2 1,0 3,9 9 5 22 12 SSE 44 0 0,0
14.12.2018 09:00:00 -7,0 -8,2 -1,5 0,2 1,0 3,9 18 10 24 13 SE 56 0 0,0
14.12.2018 08:00:00 -7,2 -8,2 -1,4 0,2 1,0 3,9 11 6 26 14 ESE 51 0 0,0
14.12.2018 07:00:00 -7,3 -8,5 -1,4 0,2 1,0 3,9 22 12 29 16 SE 33 0 0,0
14.12.2018 06:00:00 -7,9 -9,0 -1,3 0,2 1,0 3,9 21 12 29 15 SE 46 0 0,0
14.12.2018 05:00:00 -8,1 -9,2 -1,2 0,2 1,0 3,9 23 12 29 16 ESE 32 0 0,0
14.12.2018 04:00:00 -7,8 -8,8 -1,1 0,2 1,0 3,9 23 13 33 18 SE 31 0 0,0
14.12.2018 03:00:00 -8,2 -9,2 -1,1 0,2 1,0 3,9 31 17 38 21 SE 4,3 0 0,0
14.12.2018 02:00:00 -8,8 -9,9 -1,0 0,2 1,0 3,9 34 19 40 21 ESE 1,4 0 0,0
14.12.2018 01:00:00 -9,6 -10,9 -1,0 0,2 1,0 3,9 32 18 40 21 ESE - 0 0,0
14.12.2018 00:00:00 -9,4 -10,6 -0,9 0,2 1,0 3,9 31 17 38 21 ESE - 0 0,0
13.12.2018 23:00:00 -9,1 -10,3 -0,9 0,2 1,0 3,9 34 18 46 25 ESE - 0 0,0
13.12.2018 22:00:00 -8,9 -10,2 -0,9 0,2 1,0 3,9 42 23 54 29 E - 0 0,0
13.12.2018 21:00:00 -8,7 -9,9 -0,9 0,2 1,0 3,9 38 20 49 27 E - 0 0,0
13.12.2018 20:00:00 -8,6 -9,8 -0,9 0,2 1,0 3,9 38 21 54 29 E 0,1 0 0,0
13.12.2018 19:00:00 -8,6 -9,8 -0,9 0,2 1,0 3,9 32 17 49 27 E 0,1 0 0,0
13.12.2018 18:00:00 -8,6 -9,7 -0,9 0,2 1,0 3,9 25 14 42 23 E 0,1 0 0,0
13.12.2018 17:00:00 -8,5 -9,6 -0,8 0,2 1,0 3,9 24 13 34 18 E 0,2 0 0,0
13.12.2018 16:00:00 -8,5 -9,6 -0,8 0,2 1,0 3,9 21 12 37 20 E 0,1 0 0,0
13.12.2018 15:00:00 -8,4 -9,5 -0,8 0,2 1,0 3,9 25 14 46 25 E 0,1 0 0,0
13.12.2018 14:00:00 -8,3 -9,5 -0,7 0,2 1,0 3,9 35 19 49 26 E 2,5 0 0,0
13.12.2018 13:00:00 -8,0 -9,2 -0,7 0,2 1,0 3,9 36 19 52 28 E 0,2 0 0,0
13.12.2018 12:00:00 -7,7 -8,8 -0,7 0,2 1,0 3,9 40 21 59 32 E 0,1 0 0,0
13.12.2018 11:00:00 -7,8 -9,0 -0,7 0,2 1,0 3,9 44 24 64 35 E 0,1 0 0,0
13.12.2018 10:00:00 -8,0 -9,3 -0,7 0,2 1,0 3,9 50 27 67 36 E 0,1 0 0,0
13.12.2018 09:00:00 -8,3 -9,7 -0,7 0,2 1,0 3,9 54 29 71 39 E 0,1 0 0,0
13.12.2018 08:00:00 -8,4 -9,8 -0,7 0,2 1,0 3,9 52 28 72 39 E 0,1 0 0,0
13.12.2018 07:00:00 -8,3 -9,7 -0,7 0,2 1,0 3,9 58 31 74 40 E 0,2 0 0,0
13.12.2018 06:00:00 -8,3 -9,7 -0,7 0,2 1,0 3,9 55 30 71 38 E 0,6 0 0,0
13.12.2018 05:00:00 -8,1 -9,5 -0,7 0,2 1,0 4,0 53 29 70 38 E 0,1 0 0,0

tt = temperature
td = dewpoint
tt 5cm = temperature 5cm
tt -5cm = temperature -5cm
tt -20cm = temperature -20cm
tt -100cm = temperature -100cm
ff = wind speed
fx = gusts
dd = wind direction
vv = visibility
sd = sunshine duration
rr = precipitation

Next stations